sensor_id;sensor_type;location;lat;lon;timestamp;P1;durP1;ratioP1;P2;durP2;ratioP2
71172;SDS011;58875;51.996;4.504;2024-03-08T00:00:34;34.08;;;32.02;;
71172;SDS011;58875;51.996;4.504;2024-03-08T00:02:59;31.74;;;30.37;;
71172;SDS011;58875;51.996;4.504;2024-03-08T00:05:27;31.90;;;30.52;;
71172;SDS011;58875;51.996;4.504;2024-03-08T00:07:53;31.43;;;30.42;;
71172;SDS011;58875;51.996;4.504;2024-03-08T00:10:18;31.79;;;30.74;;
71172;SDS011;58875;51.996;4.504;2024-03-08T00:12:46;31.86;;;30.84;;
71172;SDS011;58875;51.996;4.504;2024-03-08T00:15:12;32.19;;;30.93;;
71172;SDS011;58875;51.996;4.504;2024-03-08T00:17:40;31.67;;;30.51;;
71172;SDS011;58875;51.996;4.504;2024-03-08T00:20:06;32.03;;;30.86;;
71172;SDS011;58875;51.996;4.504;2024-03-08T00:22:35;32.21;;;31.12;;
71172;SDS011;58875;51.996;4.504;2024-03-08T00:25:05;32.11;;;31.26;;
71172;SDS011;58875;51.996;4.504;2024-03-08T00:27:34;31.54;;;30.49;;
71172;SDS011;58875;51.996;4.504;2024-03-08T00:30:00;32.75;;;31.45;;
71172;SDS011;58875;51.996;4.504;2024-03-08T00:32:26;31.73;;;30.58;;
71172;SDS011;58875;51.996;4.504;2024-03-08T00:34:57;32.63;;;31.48;;
71172;SDS011;58875;51.996;4.504;2024-03-08T00:37:22;34.29;;;32.36;;
71172;SDS011;58875;51.996;4.504;2024-03-08T00:39:49;32.89;;;31.56;;
71172;SDS011;58875;51.996;4.504;2024-03-08T00:42:16;33.13;;;31.79;;
71172;SDS011;58875;51.996;4.504;2024-03-08T00:44:49;32.42;;;31.21;;
71172;SDS011;58875;51.996;4.504;2024-03-08T00:47:16;32.53;;;31.36;;
71172;SDS011;58875;51.996;4.504;2024-03-08T00:49:42;32.77;;;31.27;;
71172;SDS011;58875;51.996;4.504;2024-03-08T00:52:07;31.71;;;30.96;;
71172;SDS011;58875;51.996;4.504;2024-03-08T00:54:36;32.30;;;31.07;;
71172;SDS011;58875;51.996;4.504;2024-03-08T00:57:03;30.73;;;29.92;;
71172;SDS011;58875;51.996;4.504;2024-03-08T00:59:29;30.81;;;29.99;;
71172;SDS011;58875;51.996;4.504;2024-03-08T01:01:58;31.86;;;30.78;;
71172;SDS011;58875;51.996;4.504;2024-03-08T01:04:25;31.10;;;30.40;;
71172;SDS011;58875;51.996;4.504;2024-03-08T01:06:54;31.65;;;30.74;;
71172;SDS011;58875;51.996;4.504;2024-03-08T01:09:23;31.83;;;30.83;;
71172;SDS011;58875;51.996;4.504;2024-03-08T01:11:49;31.35;;;30.35;;
71172;SDS011;58875;51.996;4.504;2024-03-08T01:14:15;31.33;;;30.57;;
71172;SDS011;58875;51.996;4.504;2024-03-08T01:16:41;31.91;;;30.47;;
71172;SDS011;58875;51.996;4.504;2024-03-08T01:19:06;33.14;;;31.71;;
71172;SDS011;58875;51.996;4.504;2024-03-08T01:21:32;32.56;;;31.48;;
71172;SDS011;58875;51.996;4.504;2024-03-08T01:23:58;31.99;;;30.97;;
71172;SDS011;58875;51.996;4.504;2024-03-08T01:26:23;31.33;;;30.50;;
71172;SDS011;58875;51.996;4.504;2024-03-08T01:28:49;31.90;;;30.95;;
71172;SDS011;58875;51.996;4.504;2024-03-08T01:31:15;31.95;;;31.06;;
71172;SDS011;58875;51.996;4.504;2024-03-08T01:33:41;31.77;;;30.96;;
71172;SDS011;58875;51.996;4.504;2024-03-08T01:36:07;31.51;;;30.73;;
71172;SDS011;58875;51.996;4.504;2024-03-08T01:38:33;32.52;;;31.22;;
71172;SDS011;58875;51.996;4.504;2024-03-08T01:40:59;31.38;;;30.62;;
71172;SDS011;58875;51.996;4.504;2024-03-08T01:43:28;31.69;;;30.50;;
71172;SDS011;58875;51.996;4.504;2024-03-08T01:45:55;31.76;;;31.03;;
71172;SDS011;58875;51.996;4.504;2024-03-08T01:48:27;31.68;;;30.81;;
71172;SDS011;58875;51.996;4.504;2024-03-08T01:50:55;31.99;;;30.88;;
71172;SDS011;58875;51.996;4.504;2024-03-08T01:53:21;31.41;;;30.55;;
71172;SDS011;58875;51.996;4.504;2024-03-08T01:55:49;32.24;;;31.33;;
71172;SDS011;58875;51.996;4.504;2024-03-08T01:58:17;32.48;;;31.52;;
71172;SDS011;58875;51.996;4.504;2024-03-08T02:00:47;31.26;;;30.41;;
71172;SDS011;58875;51.996;4.504;2024-03-08T02:03:17;32.22;;;31.22;;
71172;SDS011;58875;51.996;4.504;2024-03-08T02:05:43;31.92;;;30.97;;
71172;SDS011;58875;51.996;4.504;2024-03-08T02:08:09;33.02;;;31.58;;
71172;SDS011;58875;51.996;4.504;2024-03-08T02:10:40;31.85;;;30.88;;
71172;SDS011;58875;51.996;4.504;2024-03-08T02:13:10;32.09;;;31.15;;
71172;SDS011;58875;51.996;4.504;2024-03-08T02:18:21;32.88;;;31.83;;
71172;SDS011;58875;51.996;4.504;2024-03-08T02:20:51;31.97;;;30.89;;
71172;SDS011;58875;51.996;4.504;2024-03-08T02:23:21;31.85;;;30.89;;
71172;SDS011;58875;51.996;4.504;2024-03-08T02:25:47;31.75;;;30.78;;
71172;SDS011;58875;51.996;4.504;2024-03-08T02:28:14;32.05;;;30.96;;
71172;SDS011;58875;51.996;4.504;2024-03-08T02:30:40;31.88;;;30.77;;
71172;SDS011;58875;51.996;4.504;2024-03-08T02:33:06;31.14;;;30.27;;
71172;SDS011;58875;51.996;4.504;2024-03-08T02:35:34;32.15;;;31.24;;
71172;SDS011;58875;51.996;4.504;2024-03-08T02:38:01;33.39;;;32.10;;
71172;SDS011;58875;51.996;4.504;2024-03-08T02:40:36;33.15;;;32.03;;
71172;SDS011;58875;51.996;4.504;2024-03-08T02:43:01;33.03;;;31.93;;
71172;SDS011;58875;51.996;4.504;2024-03-08T02:45:27;34.05;;;32.48;;
71172;SDS011;58875;51.996;4.504;2024-03-08T02:47:53;33.01;;;31.98;;
71172;SDS011;58875;51.996;4.504;2024-03-08T02:50:18;33.23;;;32.05;;
71172;SDS011;58875;51.996;4.504;2024-03-08T02:52:47;32.66;;;31.73;;
71172;SDS011;58875;51.996;4.504;2024-03-08T02:55:16;32.76;;;31.69;;
71172;SDS011;58875;51.996;4.504;2024-03-08T02:57:42;32.61;;;31.67;;
71172;SDS011;58875;51.996;4.504;2024-03-08T03:00:12;32.74;;;31.95;;
71172;SDS011;58875;51.996;4.504;2024-03-08T03:02:38;34.23;;;32.94;;
71172;SDS011;58875;51.996;4.504;2024-03-08T03:05:05;33.30;;;32.13;;
71172;SDS011;58875;51.996;4.504;2024-03-08T03:07:34;32.52;;;31.71;;
71172;SDS011;58875;51.996;4.504;2024-03-08T03:10:00;33.89;;;32.92;;
71172;SDS011;58875;51.996;4.504;2024-03-08T03:12:27;33.09;;;32.34;;
71172;SDS011;58875;51.996;4.504;2024-03-08T03:15:02;32.81;;;32.06;;
71172;SDS011;58875;51.996;4.504;2024-03-08T03:17:28;32.26;;;31.34;;
71172;SDS011;58875;51.996;4.504;2024-03-08T03:19:59;32.36;;;31.20;;
71172;SDS011;58875;51.996;4.504;2024-03-08T03:22:34;32.28;;;30.95;;
71172;SDS011;58875;51.996;4.504;2024-03-08T03:25:00;32.79;;;31.35;;
71172;SDS011;58875;51.996;4.504;2024-03-08T03:27:25;32.87;;;31.75;;
71172;SDS011;58875;51.996;4.504;2024-03-08T03:29:51;32.38;;;31.43;;
71172;SDS011;58875;51.996;4.504;2024-03-08T03:32:18;32.75;;;31.40;;
71172;SDS011;58875;51.996;4.504;2024-03-08T03:34:47;32.69;;;31.59;;
71172;SDS011;58875;51.996;4.504;2024-03-08T03:37:12;32.72;;;31.79;;
71172;SDS011;58875;51.996;4.504;2024-03-08T03:39:38;33.36;;;32.12;;
71172;SDS011;58875;51.996;4.504;2024-03-08T03:42:17;32.74;;;31.69;;
71172;SDS011;58875;51.996;4.504;2024-03-08T03:44:44;32.56;;;31.74;;
71172;SDS011;58875;51.996;4.504;2024-03-08T03:47:13;32.49;;;31.61;;
71172;SDS011;58875;51.996;4.504;2024-03-08T03:49:42;32.77;;;31.61;;
71172;SDS011;58875;51.996;4.504;2024-03-08T03:52:11;33.68;;;32.59;;
71172;SDS011;58875;51.996;4.504;2024-03-08T03:54:37;34.34;;;33.08;;
71172;SDS011;58875;51.996;4.504;2024-03-08T03:57:03;33.95;;;32.76;;
71172;SDS011;58875;51.996;4.504;2024-03-08T03:59:29;34.04;;;32.98;;
71172;SDS011;58875;51.996;4.504;2024-03-08T04:01:55;33.75;;;32.58;;
71172;SDS011;58875;51.996;4.504;2024-03-08T04:04:21;34.15;;;32.99;;
71172;SDS011;58875;51.996;4.504;2024-03-08T04:06:47;33.41;;;32.42;;
71172;SDS011;58875;51.996;4.504;2024-03-08T04:09:12;34.66;;;33.32;;
71172;SDS011;58875;51.996;4.504;2024-03-08T04:11:39;33.70;;;32.76;;
71172;SDS011;58875;51.996;4.504;2024-03-08T04:14:05;34.27;;;33.31;;
71172;SDS011;58875;51.996;4.504;2024-03-08T04:16:31;33.88;;;32.88;;
71172;SDS011;58875;51.996;4.504;2024-03-08T04:19:00;34.68;;;33.33;;
71172;SDS011;58875;51.996;4.504;2024-03-08T04:21:32;34.04;;;32.96;;
71172;SDS011;58875;51.996;4.504;2024-03-08T04:23:58;34.10;;;33.38;;
71172;SDS011;58875;51.996;4.504;2024-03-08T04:26:23;33.91;;;33.04;;
71172;SDS011;58875;51.996;4.504;2024-03-08T04:28:53;34.59;;;33.53;;
71172;SDS011;58875;51.996;4.504;2024-03-08T04:31:19;33.52;;;32.60;;
71172;SDS011;58875;51.996;4.504;2024-03-08T04:33:44;35.00;;;33.85;;
71172;SDS011;58875;51.996;4.504;2024-03-08T04:36:10;34.25;;;33.15;;
71172;SDS011;58875;51.996;4.504;2024-03-08T04:38:39;34.33;;;33.35;;
71172;SDS011;58875;51.996;4.504;2024-03-08T04:41:07;34.25;;;33.05;;
71172;SDS011;58875;51.996;4.504;2024-03-08T04:43:34;34.77;;;33.75;;
71172;SDS011;58875;51.996;4.504;2024-03-08T04:46:01;34.70;;;34.00;;
71172;SDS011;58875;51.996;4.504;2024-03-08T04:48:29;35.11;;;33.98;;
71172;SDS011;58875;51.996;4.504;2024-03-08T04:50:54;34.26;;;33.22;;
71172;SDS011;58875;51.996;4.504;2024-03-08T04:53:21;35.64;;;34.24;;
71172;SDS011;58875;51.996;4.504;2024-03-08T04:55:46;34.29;;;33.43;;
71172;SDS011;58875;51.996;4.504;2024-03-08T04:58:12;35.24;;;33.82;;
71172;SDS011;58875;51.996;4.504;2024-03-08T05:00:37;35.89;;;34.51;;
71172;SDS011;58875;51.996;4.504;2024-03-08T05:03:03;35.64;;;34.63;;
71172;SDS011;58875;51.996;4.504;2024-03-08T05:05:30;35.68;;;34.50;;
71172;SDS011;58875;51.996;4.504;2024-03-08T05:07:56;34.71;;;33.61;;
71172;SDS011;58875;51.996;4.504;2024-03-08T05:10:21;35.54;;;34.22;;
71172;SDS011;58875;51.996;4.504;2024-03-08T05:12:47;35.17;;;34.17;;
71172;SDS011;58875;51.996;4.504;2024-03-08T05:15:13;35.03;;;34.20;;
71172;SDS011;58875;51.996;4.504;2024-03-08T05:17:39;35.31;;;34.10;;
71172;SDS011;58875;51.996;4.504;2024-03-08T05:20:05;36.28;;;34.99;;
71172;SDS011;58875;51.996;4.504;2024-03-08T05:22:37;35.82;;;34.65;;
71172;SDS011;58875;51.996;4.504;2024-03-08T05:25:03;36.23;;;34.91;;
71172;SDS011;58875;51.996;4.504;2024-03-08T05:27:29;35.54;;;34.27;;
71172;SDS011;58875;51.996;4.504;2024-03-08T05:29:54;35.67;;;34.58;;
71172;SDS011;58875;51.996;4.504;2024-03-08T05:32:20;35.88;;;34.58;;
71172;SDS011;58875;51.996;4.504;2024-03-08T05:34:46;36.03;;;34.60;;
71172;SDS011;58875;51.996;4.504;2024-03-08T05:37:12;36.06;;;34.96;;
71172;SDS011;58875;51.996;4.504;2024-03-08T05:39:37;36.33;;;35.15;;
71172;SDS011;58875;51.996;4.504;2024-03-08T05:42:03;37.20;;;35.45;;
71172;SDS011;58875;51.996;4.504;2024-03-08T05:44:29;36.63;;;35.48;;
71172;SDS011;58875;51.996;4.504;2024-03-08T05:46:56;36.14;;;35.01;;
71172;SDS011;58875;51.996;4.504;2024-03-08T05:49:21;36.84;;;35.65;;
71172;SDS011;58875;51.996;4.504;2024-03-08T05:51:47;35.65;;;34.91;;
71172;SDS011;58875;51.996;4.504;2024-03-08T05:54:13;35.89;;;34.92;;
71172;SDS011;58875;51.996;4.504;2024-03-08T05:56:39;36.58;;;35.07;;
71172;SDS011;58875;51.996;4.504;2024-03-08T05:59:09;36.60;;;35.36;;
71172;SDS011;58875;51.996;4.504;2024-03-08T06:01:36;37.20;;;36.12;;
71172;SDS011;58875;51.996;4.504;2024-03-08T06:04:02;37.83;;;36.40;;
71172;SDS011;58875;51.996;4.504;2024-03-08T06:06:29;37.63;;;36.44;;
71172;SDS011;58875;51.996;4.504;2024-03-08T06:08:55;37.87;;;36.34;;
71172;SDS011;58875;51.996;4.504;2024-03-08T06:11:24;37.13;;;35.83;;
71172;SDS011;58875;51.996;4.504;2024-03-08T06:13:52;38.52;;;36.91;;
71172;SDS011;58875;51.996;4.504;2024-03-08T06:16:25;38.02;;;37.05;;
71172;SDS011;58875;51.996;4.504;2024-03-08T06:18:55;36.71;;;35.61;;
71172;SDS011;58875;51.996;4.504;2024-03-08T06:21:22;38.09;;;36.65;;
71172;SDS011;58875;51.996;4.504;2024-03-08T06:23:49;39.08;;;37.16;;
71172;SDS011;58875;51.996;4.504;2024-03-08T06:26:15;38.57;;;37.18;;
71172;SDS011;58875;51.996;4.504;2024-03-08T06:28:41;36.37;;;35.58;;
71172;SDS011;58875;51.996;4.504;2024-03-08T06:31:07;36.88;;;35.83;;
71172;SDS011;58875;51.996;4.504;2024-03-08T06:33:33;37.58;;;36.63;;
71172;SDS011;58875;51.996;4.504;2024-03-08T06:36:00;37.08;;;35.88;;
71172;SDS011;58875;51.996;4.504;2024-03-08T06:38:26;37.65;;;36.35;;
71172;SDS011;58875;51.996;4.504;2024-03-08T06:40:52;39.25;;;37.25;;
71172;SDS011;58875;51.996;4.504;2024-03-08T06:43:19;38.48;;;37.05;;
71172;SDS011;58875;51.996;4.504;2024-03-08T06:45:46;38.00;;;36.55;;
71172;SDS011;58875;51.996;4.504;2024-03-08T06:48:18;38.52;;;37.16;;
71172;SDS011;58875;51.996;4.504;2024-03-08T06:50:48;39.64;;;38.13;;
71172;SDS011;58875;51.996;4.504;2024-03-08T06:53:13;38.73;;;37.51;;
71172;SDS011;58875;51.996;4.504;2024-03-08T06:55:39;38.93;;;37.37;;
71172;SDS011;58875;51.996;4.504;2024-03-08T06:58:05;39.48;;;37.63;;
71172;SDS011;58875;51.996;4.504;2024-03-08T07:00:32;39.26;;;37.70;;
71172;SDS011;58875;51.996;4.504;2024-03-08T07:02:58;36.68;;;35.67;;
71172;SDS011;58875;51.996;4.504;2024-03-08T07:05:37;39.04;;;37.56;;
71172;SDS011;58875;51.996;4.504;2024-03-08T07:08:04;38.64;;;37.09;;
71172;SDS011;58875;51.996;4.504;2024-03-08T07:10:31;39.18;;;37.41;;
71172;SDS011;58875;51.996;4.504;2024-03-08T07:12:57;37.60;;;36.35;;
71172;SDS011;58875;51.996;4.504;2024-03-08T07:15:22;36.83;;;35.85;;
71172;SDS011;58875;51.996;4.504;2024-03-08T07:17:48;38.59;;;37.40;;
71172;SDS011;58875;51.996;4.504;2024-03-08T07:20:14;37.64;;;36.42;;
71172;SDS011;58875;51.996;4.504;2024-03-08T07:22:44;37.26;;;35.93;;
71172;SDS011;58875;51.996;4.504;2024-03-08T07:25:13;37.69;;;36.57;;
71172;SDS011;58875;51.996;4.504;2024-03-08T07:27:47;38.19;;;36.57;;
71172;SDS011;58875;51.996;4.504;2024-03-08T07:30:13;36.98;;;35.87;;
71172;SDS011;58875;51.996;4.504;2024-03-08T07:33:02;37.94;;;36.74;;
71172;SDS011;58875;51.996;4.504;2024-03-08T07:35:28;37.10;;;35.90;;
71172;SDS011;58875;51.996;4.504;2024-03-08T07:40:28;35.17;;;34.46;;
71172;SDS011;58875;51.996;4.504;2024-03-08T07:42:53;36.14;;;35.30;;
71172;SDS011;58875;51.996;4.504;2024-03-08T07:45:19;36.98;;;35.94;;
71172;SDS011;58875;51.996;4.504;2024-03-08T07:47:45;36.41;;;35.50;;
71172;SDS011;58875;51.996;4.504;2024-03-08T07:50:10;34.87;;;34.36;;
71172;SDS011;58875;51.996;4.504;2024-03-08T07:52:36;35.59;;;34.67;;
71172;SDS011;58875;51.996;4.504;2024-03-08T07:55:02;35.90;;;35.09;;
71172;SDS011;58875;51.996;4.504;2024-03-08T07:57:29;35.67;;;34.80;;
71172;SDS011;58875;51.996;4.504;2024-03-08T07:59:58;34.97;;;34.20;;
71172;SDS011;58875;51.996;4.504;2024-03-08T08:02:23;35.26;;;34.33;;
71172;SDS011;58875;51.996;4.504;2024-03-08T08:04:49;34.86;;;34.26;;
71172;SDS011;58875;51.996;4.504;2024-03-08T08:07:14;35.58;;;34.62;;
71172;SDS011;58875;51.996;4.504;2024-03-08T08:09:40;35.99;;;34.99;;
71172;SDS011;58875;51.996;4.504;2024-03-08T08:12:10;35.31;;;34.44;;
71172;SDS011;58875;51.996;4.504;2024-03-08T08:14:39;35.16;;;34.44;;
71172;SDS011;58875;51.996;4.504;2024-03-08T08:17:06;35.20;;;34.41;;
71172;SDS011;58875;51.996;4.504;2024-03-08T08:19:34;34.60;;;34.01;;
71172;SDS011;58875;51.996;4.504;2024-03-08T08:22:03;34.80;;;34.35;;
71172;SDS011;58875;51.996;4.504;2024-03-08T08:24:29;35.79;;;35.02;;
71172;SDS011;58875;51.996;4.504;2024-03-08T08:26:54;34.83;;;34.01;;
71172;SDS011;58875;51.996;4.504;2024-03-08T08:29:20;34.01;;;33.47;;
71172;SDS011;58875;51.996;4.504;2024-03-08T08:31:47;34.05;;;33.50;;
71172;SDS011;58875;51.996;4.504;2024-03-08T08:34:12;33.73;;;33.44;;
71172;SDS011;58875;51.996;4.504;2024-03-08T08:36:39;34.43;;;33.85;;
71172;SDS011;58875;51.996;4.504;2024-03-08T08:39:05;35.36;;;34.76;;
71172;SDS011;58875;51.996;4.504;2024-03-08T08:41:37;34.60;;;34.15;;
71172;SDS011;58875;51.996;4.504;2024-03-08T08:44:03;33.61;;;33.07;;
71172;SDS011;58875;51.996;4.504;2024-03-08T08:46:28;33.98;;;33.63;;
71172;SDS011;58875;51.996;4.504;2024-03-08T08:48:54;34.79;;;34.23;;
71172;SDS011;58875;51.996;4.504;2024-03-08T08:51:19;33.72;;;33.19;;
71172;SDS011;58875;51.996;4.504;2024-03-08T08:53:45;34.75;;;34.24;;
71172;SDS011;58875;51.996;4.504;2024-03-08T08:56:13;33.78;;;33.37;;
71172;SDS011;58875;51.996;4.504;2024-03-08T08:58:42;33.98;;;33.39;;
71172;SDS011;58875;51.996;4.504;2024-03-08T09:01:08;34.22;;;33.57;;
71172;SDS011;58875;51.996;4.504;2024-03-08T09:03:35;34.43;;;33.77;;
71172;SDS011;58875;51.996;4.504;2024-03-08T09:06:08;33.67;;;33.47;;
71172;SDS011;58875;51.996;4.504;2024-03-08T09:08:35;34.38;;;33.69;;
71172;SDS011;58875;51.996;4.504;2024-03-08T09:11:01;34.45;;;33.76;;
71172;SDS011;58875;51.996;4.504;2024-03-08T09:13:27;34.57;;;33.95;;
71172;SDS011;58875;51.996;4.504;2024-03-08T09:15:52;34.26;;;33.69;;
71172;SDS011;58875;51.996;4.504;2024-03-08T09:18:18;34.79;;;33.95;;
71172;SDS011;58875;51.996;4.504;2024-03-08T09:20:44;34.11;;;33.74;;
71172;SDS011;58875;51.996;4.504;2024-03-08T09:23:10;34.46;;;33.76;;
71172;SDS011;58875;51.996;4.504;2024-03-08T09:25:40;34.46;;;33.81;;
71172;SDS011;58875;51.996;4.504;2024-03-08T09:28:06;34.10;;;33.51;;
71172;SDS011;58875;51.996;4.504;2024-03-08T09:30:31;34.60;;;34.16;;
71172;SDS011;58875;51.996;4.504;2024-03-08T09:32:57;34.06;;;33.38;;
71172;SDS011;58875;51.996;4.504;2024-03-08T09:35:22;34.41;;;33.91;;
71172;SDS011;58875;51.996;4.504;2024-03-08T09:37:48;35.30;;;34.44;;
71172;SDS011;58875;51.996;4.504;2024-03-08T09:40:16;33.85;;;33.43;;
71172;SDS011;58875;51.996;4.504;2024-03-08T09:42:44;34.15;;;33.86;;
71172;SDS011;58875;51.996;4.504;2024-03-08T09:45:12;35.21;;;34.53;;
71172;SDS011;58875;51.996;4.504;2024-03-08T09:47:40;35.50;;;34.81;;
71172;SDS011;58875;51.996;4.504;2024-03-08T09:50:07;33.51;;;33.08;;
71172;SDS011;58875;51.996;4.504;2024-03-08T09:52:37;34.91;;;34.29;;
71172;SDS011;58875;51.996;4.504;2024-03-08T09:55:05;34.92;;;34.35;;
71172;SDS011;58875;51.996;4.504;2024-03-08T09:57:32;34.49;;;33.89;;
71172;SDS011;58875;51.996;4.504;2024-03-08T09:59:59;33.14;;;32.55;;
71172;SDS011;58875;51.996;4.504;2024-03-08T10:02:24;33.51;;;33.08;;
71172;SDS011;58875;51.996;4.504;2024-03-08T10:04:51;33.48;;;32.98;;
71172;SDS011;58875;51.996;4.504;2024-03-08T10:07:18;32.76;;;32.26;;
71172;SDS011;58875;51.996;4.504;2024-03-08T10:09:44;33.30;;;32.69;;
71172;SDS011;58875;51.996;4.504;2024-03-08T10:12:20;33.47;;;32.78;;
71172;SDS011;58875;51.996;4.504;2024-03-08T10:14:49;33.23;;;32.52;;
71172;SDS011;58875;51.996;4.504;2024-03-08T10:17:15;33.05;;;32.67;;
71172;SDS011;58875;51.996;4.504;2024-03-08T10:19:49;33.44;;;32.80;;
71172;SDS011;58875;51.996;4.504;2024-03-08T10:22:15;33.40;;;32.92;;
71172;SDS011;58875;51.996;4.504;2024-03-08T10:24:41;33.45;;;32.95;;
71172;SDS011;58875;51.996;4.504;2024-03-08T10:27:08;33.78;;;33.37;;
71172;SDS011;58875;51.996;4.504;2024-03-08T10:29:33;34.00;;;33.50;;
71172;SDS011;58875;51.996;4.504;2024-03-08T10:31:59;33.10;;;32.57;;
71172;SDS011;58875;51.996;4.504;2024-03-08T10:34:25;32.32;;;31.91;;
71172;SDS011;58875;51.996;4.504;2024-03-08T10:36:51;31.97;;;31.39;;
71172;SDS011;58875;51.996;4.504;2024-03-08T10:39:23;31.76;;;31.31;;
71172;SDS011;58875;51.996;4.504;2024-03-08T10:41:56;31.16;;;30.79;;
71172;SDS011;58875;51.996;4.504;2024-03-08T10:47:03;31.83;;;31.41;;
71172;SDS011;58875;51.996;4.504;2024-03-08T10:49:44;32.36;;;31.69;;
71172;SDS011;58875;51.996;4.504;2024-03-08T10:52:15;29.97;;;29.63;;
71172;SDS011;58875;51.996;4.504;2024-03-08T10:54:43;30.53;;;30.32;;
71172;SDS011;58875;51.996;4.504;2024-03-08T10:57:12;30.60;;;30.25;;
71172;SDS011;58875;51.996;4.504;2024-03-08T10:59:40;30.39;;;30.22;;
71172;SDS011;58875;51.996;4.504;2024-03-08T11:02:10;30.51;;;30.20;;
71172;SDS011;58875;51.996;4.504;2024-03-08T11:04:37;30.82;;;30.37;;
71172;SDS011;58875;51.996;4.504;2024-03-08T11:07:03;31.96;;;31.59;;
71172;SDS011;58875;51.996;4.504;2024-03-08T11:09:32;31.42;;;30.95;;
71172;SDS011;58875;51.996;4.504;2024-03-08T11:14:56;30.87;;;30.45;;
71172;SDS011;58875;51.996;4.504;2024-03-08T11:19:58;30.89;;;30.57;;
71172;SDS011;58875;51.996;4.504;2024-03-08T11:22:31;30.18;;;29.95;;
71172;SDS011;58875;51.996;4.504;2024-03-08T11:25:44;29.22;;;28.98;;
71172;SDS011;58875;51.996;4.504;2024-03-08T11:28:07;30.39;;;30.12;;
71172;SDS011;58875;51.996;4.504;2024-03-08T11:33:27;30.23;;;29.85;;
71172;SDS011;58875;51.996;4.504;2024-03-08T11:39:00;29.38;;;29.18;;
71172;SDS011;58875;51.996;4.504;2024-03-08T11:41:34;28.22;;;28.06;;
71172;SDS011;58875;51.996;4.504;2024-03-08T11:44:04;28.43;;;28.27;;
71172;SDS011;58875;51.996;4.504;2024-03-08T11:46:31;28.37;;;28.05;;
71172;SDS011;58875;51.996;4.504;2024-03-08T11:48:56;28.47;;;27.98;;
71172;SDS011;58875;51.996;4.504;2024-03-08T11:51:22;28.94;;;28.30;;
71172;SDS011;58875;51.996;4.504;2024-03-08T11:53:51;28.70;;;28.27;;
71172;SDS011;58875;51.996;4.504;2024-03-08T11:56:18;28.27;;;28.04;;
71172;SDS011;58875;51.996;4.504;2024-03-08T11:58:53;28.89;;;28.41;;
71172;SDS011;58875;51.996;4.504;2024-03-08T12:01:23;27.94;;;27.70;;
71172;SDS011;58875;51.996;4.504;2024-03-08T12:03:53;27.74;;;27.42;;
71172;SDS011;58875;51.996;4.504;2024-03-08T12:06:20;28.30;;;27.91;;
71172;SDS011;58875;51.996;4.504;2024-03-08T12:08:46;28.20;;;27.69;;
71172;SDS011;58875;51.996;4.504;2024-03-08T12:11:16;27.36;;;27.14;;
71172;SDS011;58875;51.996;4.504;2024-03-08T12:13:48;28.13;;;27.82;;
71172;SDS011;58875;51.996;4.504;2024-03-08T12:16:17;27.55;;;27.43;;
71172;SDS011;58875;51.996;4.504;2024-03-08T12:18:43;28.47;;;28.06;;
71172;SDS011;58875;51.996;4.504;2024-03-08T12:21:17;27.55;;;27.45;;
71172;SDS011;58875;51.996;4.504;2024-03-08T12:23:45;28.15;;;27.80;;
71172;SDS011;58875;51.996;4.504;2024-03-08T12:26:18;28.57;;;27.96;;
71172;SDS011;58875;51.996;4.504;2024-03-08T12:28:51;28.77;;;28.38;;
71172;SDS011;58875;51.996;4.504;2024-03-08T12:31:17;28.09;;;27.66;;
71172;SDS011;58875;51.996;4.504;2024-03-08T12:33:53;27.38;;;27.01;;
71172;SDS011;58875;51.996;4.504;2024-03-08T12:36:24;27.34;;;27.16;;
71172;SDS011;58875;51.996;4.504;2024-03-08T12:38:50;28.31;;;27.83;;
71172;SDS011;58875;51.996;4.504;2024-03-08T12:41:19;27.40;;;27.05;;
71172;SDS011;58875;51.996;4.504;2024-03-08T12:43:46;27.50;;;27.24;;
71172;SDS011;58875;51.996;4.504;2024-03-08T12:46:17;27.74;;;27.44;;
71172;SDS011;58875;51.996;4.504;2024-03-08T12:48:47;27.91;;;27.55;;
71172;SDS011;58875;51.996;4.504;2024-03-08T12:51:17;28.22;;;27.75;;
71172;SDS011;58875;51.996;4.504;2024-03-08T12:53:43;28.40;;;27.99;;
71172;SDS011;58875;51.996;4.504;2024-03-08T12:56:11;27.65;;;27.38;;
71172;SDS011;58875;51.996;4.504;2024-03-08T12:58:47;27.55;;;27.06;;
71172;SDS011;58875;51.996;4.504;2024-03-08T13:01:13;27.21;;;26.80;;
71172;SDS011;58875;51.996;4.504;2024-03-08T13:03:40;27.18;;;27.01;;
71172;SDS011;58875;51.996;4.504;2024-03-08T13:06:06;27.42;;;27.28;;
71172;SDS011;58875;51.996;4.504;2024-03-08T13:08:37;27.87;;;27.57;;
71172;SDS011;58875;51.996;4.504;2024-03-08T13:11:06;28.78;;;28.20;;
71172;SDS011;58875;51.996;4.504;2024-03-08T13:13:32;27.87;;;27.53;;
71172;SDS011;58875;51.996;4.504;2024-03-08T13:16:01;27.39;;;27.21;;
71172;SDS011;58875;51.996;4.504;2024-03-08T13:18:33;27.49;;;27.33;;
71172;SDS011;58875;51.996;4.504;2024-03-08T13:20:59;27.98;;;27.81;;
71172;SDS011;58875;51.996;4.504;2024-03-08T13:23:24;28.44;;;28.01;;
71172;SDS011;58875;51.996;4.504;2024-03-08T13:25:50;27.60;;;27.28;;
71172;SDS011;58875;51.996;4.504;2024-03-08T13:28:16;27.03;;;26.77;;
71172;SDS011;58875;51.996;4.504;2024-03-08T13:30:47;27.51;;;26.92;;
71172;SDS011;58875;51.996;4.504;2024-03-08T13:33:13;27.34;;;26.97;;
71172;SDS011;58875;51.996;4.504;2024-03-08T13:35:39;28.31;;;27.59;;
71172;SDS011;58875;51.996;4.504;2024-03-08T13:38:06;26.68;;;26.17;;
71172;SDS011;58875;51.996;4.504;2024-03-08T13:40:34;27.19;;;26.69;;
71172;SDS011;58875;51.996;4.504;2024-03-08T13:43:00;26.73;;;26.41;;
71172;SDS011;58875;51.996;4.504;2024-03-08T13:45:26;27.58;;;27.19;;
71172;SDS011;58875;51.996;4.504;2024-03-08T13:47:53;26.93;;;26.53;;
71172;SDS011;58875;51.996;4.504;2024-03-08T13:50:21;26.84;;;26.44;;
71172;SDS011;58875;51.996;4.504;2024-03-08T13:52:48;26.89;;;26.77;;
71172;SDS011;58875;51.996;4.504;2024-03-08T13:55:18;26.87;;;26.53;;
71172;SDS011;58875;51.996;4.504;2024-03-08T13:57:44;27.19;;;26.65;;
71172;SDS011;58875;51.996;4.504;2024-03-08T14:00:10;26.70;;;26.49;;
71172;SDS011;58875;51.996;4.504;2024-03-08T14:02:40;26.77;;;26.60;;
71172;SDS011;58875;51.996;4.504;2024-03-08T14:05:07;26.71;;;26.30;;
71172;SDS011;58875;51.996;4.504;2024-03-08T14:07:37;26.44;;;26.30;;
71172;SDS011;58875;51.996;4.504;2024-03-08T14:10:06;26.97;;;26.58;;
71172;SDS011;58875;51.996;4.504;2024-03-08T14:12:32;26.98;;;26.44;;
71172;SDS011;58875;51.996;4.504;2024-03-08T14:15:00;27.43;;;27.14;;
71172;SDS011;58875;51.996;4.504;2024-03-08T14:17:29;27.50;;;26.90;;
71172;SDS011;58875;51.996;4.504;2024-03-08T14:20:01;27.61;;;27.24;;
71172;SDS011;58875;51.996;4.504;2024-03-08T14:22:27;27.29;;;27.01;;
71172;SDS011;58875;51.996;4.504;2024-03-08T14:24:53;26.54;;;26.30;;
71172;SDS011;58875;51.996;4.504;2024-03-08T14:27:21;26.84;;;26.57;;
71172;SDS011;58875;51.996;4.504;2024-03-08T14:29:48;26.85;;;26.44;;
71172;SDS011;58875;51.996;4.504;2024-03-08T14:32:14;27.46;;;27.23;;
71172;SDS011;58875;51.996;4.504;2024-03-08T14:34:40;27.04;;;26.69;;
71172;SDS011;58875;51.996;4.504;2024-03-08T14:37:06;27.10;;;26.72;;
71172;SDS011;58875;51.996;4.504;2024-03-08T14:39:39;26.95;;;26.51;;
71172;SDS011;58875;51.996;4.504;2024-03-08T14:42:05;26.17;;;25.85;;